Terminal Aerodrome Forecast
Issued by NWS Buffalo, NY

Home | Current Version | Previous Version | Text Only | Print | Product List | Glossary On
Versions: 1 2 3 4 5 6 7 8 9 10 11 12 13 14 15 16 17 18 19 20 21 22 23 24 25 26
000
FTUS41 KBUF 310538
TAFART
TAF
KART 310538Z 3106/0106 18005KT P6SM SCT080
     FM310900 23007KT P6SM FEW250
     FM311200 27011KT P6SM FEW250
     FM311700 24014G20KT P6SM SCT250
     FM312000 23014G20KT P6SM SCT080
     FM312300 VRB05KT P6SM VCSH BKN060=

USA.gov is the U.S. government's official web portal to all federal, state and local government web resources and services.